NWS Home NWS Lubbock West Texas Mesonet Latest Conditions as of 0926 AM, Tue Jun 30, 2015

Latest   N   C   S   Daily Sum   3hrΔ   24hrΔ   Soil Data 
Site Map   24hr Precip   72hr Precip   Google Plot


Station Time of Last Temp Dew Pt. RH Wind Direction Wind Speed Wind Gust Max Wind Max Temp Min Temp Max RH Min RH Altimeter 1HR Rain Today's Rain Solar Rad
Abernathy 5ENE  09:20 AM 67 62 87% W1013 25 mph 84° @ 0145 AM 69 61 98 77 30.16" 0 0 356
Aiken 3WSW  09:21 AM 69 62 80% W1013 18 mph 104° @ 0127 AM 69 58 99 75 30.17" 0 0 461
Amarillo 7SSE  09:21 AM 72 58 61% SW1215 19 mph 210° @ 0845 AM 72 55 98 60 30.19" 0 0 477
Amarillo 9NNE  09:20 AM 74 58 57% S1316 18 mph 194° @ 0911 AM 74 56 98 55 30.16" 0 0 470
Amherst 1NE  09:20 AM 66 62 89% SW1014 16 mph 55° @ 0140 AM 68 60 99 89 30.19" 0 0.01 480
Andrews 2E  09:20 AM 69 60 74% SW711 33 mph 81° @ 0420 AM 75 63 93 57 30.13" 0 0.27 171
Anton 6SSW  09:20 AM 67 62 87% W811 16 mph 59° @ 0210 AM 68 62 98 83 30.16" 0 0 381
Aspermont 3NE  09:20 AM 74 63 69% SE45 36 mph 24° @ 0110 AM 75 66 97 69 30.10" 0 1.52 344
Big Lake 1WNW  09:21 AM 67 64 89% S56 31 mph 11° @ 0521 AM 75 63 96 69 30.11" 0 0.54 185
Bootleg 11WNW  09:21 AM 71 55 57% SW1416 19 mph 213° @ 0840 AM 71 58 91 57 30.24" 0 0 414
Boys Ranch 1WSW  09:20 AM 75 58 56% W67 14 mph 152° @ 0632 AM 75 57 97 56 30.16" 0 0 468
Brownfield 2S  09:20 AM 66 61 87% W69 26 mph 78° @ 0300 AM 70 63 94 74 30.15" 0 0 251
Canadian 6E  09:20 AM 74 63 67% SW56 14 mph 190° @ 1201 AM 74 61 96 67 30.09" 0 0 479
Caprock Canyons State Park  09:20 AM 75 61 61% W1317 28 mph 226° @ 0753 AM 75 63 95 60 30.12" 0 0 409
Childress 2NNE  09:20 AM 75 62 66% W1215 28 mph 174° @ 1255 AM 75 65 94 66 30.08" 0 0 499
Clarendon 2WSW  09:20 AM 72 60 69% SW1418 21 mph 231° @ 0850 AM 72 63 94 69 30.14" 0 0.01 486
Claude 12SW  09:21 AM 71 58 63% SW912 17 mph 206° @ 0909 AM 71 60 98 63 30.18" 0 0 494
Coyanosa 2N  09:21 AM 69 63 82% S810 41 mph 49° @ 0549 AM 83 64 94 52 30.12" 0 0.02 283
Denver City 7WNW  09:20 AM 65 59 85% S46 26 mph 79° @ 0415 AM 67 61 98 85 30.17" 0 0.01 246
Dimmitt 2NE  09:20 AM 70 58 69% SW1519 25 mph 75° @ 0120 AM 70 58 96 66 30.20" 0 0 414
Dora NM 2SW  09:20 AM 68 58 73% S1315 20 mph 178° @ 0745 AM 68 59 95 67 30.22" 0 0 376
Dozier 3W  09:21 AM 77 62 61% W1014 18 mph 247° @ 0901 AM 77 62 94 61 30.11" 0 0 501
Floydada 2NNE  09:20 AM 69 60 75% W1316 25 mph 81° @ 1235 AM 72 62 90 72 30.14" 0 0 429
Fluvanna 3WNW  06:55 AM 65 61 90% W46 43 mph 68° @ 0225 AM 78 64 92 49 30.09" 0 0.25 4
Fort Chadbourne  09:20 AM 72 66 81% SW34 28 mph 15° @ 0331 AM 72 66 94 70 30.11" 0 0.09 393
Fort Lancaster  09:20 AM 71 62 73% NW45 31 mph 12° @ 0738 AM 79 66 89 68 30.11" 0 0.06 328
Fort McKavett  09:20 AM 75 70 85% S33 11 mph 168° @ 0516 AM 77 71 94 72 30.13" 0 0 215
Friona 2NE  09:20 AM 68 59 74% SW1317 17 mph 195° @ 0830 AM 68 59 96 74 30.22" 0 0 463
Gail 2ESE  09:20 AM 69 64 86% NW1012 42 mph 33° @ 0145 AM 78 64 97 52 30.11" 0 0.73 259
Goodlett 3W  09:20 AM 77 62 61% W913 25 mph 188° @ 1220 AM 77 65 88 61 30.07" 0 0 483
Goodnight  09:21 AM 74 58 57% SW1417 23 mph 234° @ 0843 AM 74 60 97 57 30.18" 0 0 500
Graham 5SSW  09:20 AM 70 61 75% NW912 32 mph 62° @ 0200 AM 76 63 92 51 30.12" 0 0 374
Guthrie 10WSW  09:20 AM 74 62 67% N58 41 mph 38° @ 1215 AM 74 65 92 66 30.08" 0 0.07 416
Hart 3N  09:20 AM 68 61 80% SW1115 16 mph 219° @ 0915 AM 68 59 98 78 30.19" 0 0 481
Haskell 1NW  09:20 AM 77 61 61% E12 47 mph 4° @ 1240 AM 81 67 89 60 30.08" 0 0.11 429
Hereford 2NW  09:20 AM 71 55 61% SW1115 20 mph 208° @ 0855 AM 71 59 88 61 30.20" 0 0 478
Hobbs NM 5NW  09:21 AM 67 60 78% SW88 29 mph 102° @ 0513 AM 68 62 90 77 30.19" 0 0 411
Jayton 1SSE  09:20 AM 72 64 78% S67 38 mph 45° @ 1220 AM 76 66 94 65 30.11" 0 0.22 424
Junction 1SSW  09:21 AM 79 72 79% S1012 13 mph 202° @ 0909 AM 79 70 98 65 30.11" 0 0 603
Knox City 3NW  09:20 AM 78 61 58% NW23 42 mph 19° @ 1215 AM 78 68 89 53 30.07" 0 0.49 336
Lake Alan Henry 1NW  09:21 AM 70 63 77% SW58 33 mph 55° @ 0105 AM 79 65 93 52 30.11" 0 0.08 398
Lamesa 2SE  09:20 AM 68 62 82% W1215 42 mph 100° @ 0355 AM 77 64 96 58 30.12" 0 0.01 185
Levelland 4S  09:20 AM 66 61 85% SW810 18 mph 106° @ 0345 AM 68 63 92 83 30.17" 0 0 329
Lomax 1SSE  09:21 AM 70 63 78% NE35 36 mph 159° @ 0242 AM 83 63 97 54 30.12" 0.09 1.97 280
Lubbock 3WNW TTU  09:20 AM 69 61 82% W913 20 mph 79° @ 0150 AM 71 63 90 67 30.15" 0 0 369
McLean 1E  09:20 AM 76 56 52% SW1316 18 mph 247° @ 0915 AM 76 63 93 52 30.12" 0 0 510
Memphis 1NE  09:20 AM 76 60 59% W1015 18 mph 235° @ 0805 AM 76 64 92 59 30.09" 0.01 0.01 428
Menard 2NW   09:20 AM 76 71 82% SW67 23 mph 353° @ 1212 AM 76 70 95 73 30.12" 0 0 277
Mertzon 3NNE  09:21 AM 67 65 91% SE44 61 mph 60° @ 0159 AM 76 63 96 70 30.12" 0 0.49 290
Morton 1ENE  09:20 AM 67 63 88% SW812 13 mph 184° @ 0755 AM 67 62 98 88 30.19" 0 0.01 402
Muleshoe 2SSW  09:20 AM 68 61 82% SW813 16 mph 194° @ 0840 AM 68 59 97 82 30.21" 0 0 464
Northfield 1S  09:20 AM 75 64 69% W1014 30 mph 160° @ 1230 AM 75 63 96 69 30.09" 0 0.01 495
O'Donnell 1N  09:20 AM 68 60 77% W1014 33 mph 87° @ 0220 AM 75 63 93 52 30.13" 0 0 218
Odell 4ENE  09:21 AM 76 65 68% NW56 27 mph 282° @ 1206 AM 76 64 96 61 30.06" 0 0 430
Olton 6S  09:20 AM 66 62 86% SW912 15 mph 63° @ 1250 AM 67 60 95 84 30.18" 0 0 471
Paducah 10SW  09:20 AM 73 63 73% NW46 37 mph 71° @ 1210 AM 73 64 93 68 30.08" 0 0.18 334
Palo Duro Canyon SP Floor  09:20 AM 75 59 57% SE45 14 mph 134° @ 1202 AM 75 59 96 56 30.16" 0 0 458
Palo Duro Canyon State Park Rim  09:21 AM 73 58 59% SW1216 20 mph 134° @ 1209 AM 73 60 95 59 30.20" 0 0 38
Pampa 2E  09:20 AM 74 59 60% SW1016 20 mph 224° @ 0905 AM 74 63 91 60 30.15" 0 0 472
Plains 3N  09:20 AM 66 60 84% SW45 23 mph 149° @ 0610 AM 68 63 96 84 30.18" 0 0 244
Plainview 1S  09:20 AM 67 62 86% W913 13 mph 232° @ 0815 AM 68 61 99 77 30.16" 0 0 420
Post 1NE  09:20 AM 73 61 69% NW911 26 mph 58° @ 0120 AM 74 65 91 61 30.10" 0 0 388
Ralls 1SE  09:20 AM 70 61 76% W811 28 mph 68° @ 1245 AM 74 62 95 61 30.14" 0 0 390
Reese Center  09:20 AM 67 62 85% W911 26 mph 71° @ 0200 AM 69 61 95 78 30.15" 0 0 354
Roaring Springs 3N  09:20 AM 73 63 73% W1316 35 mph 76° @ 1235 AM 73 64 99 66 30.10" 0 0.02 318
San Angelo 7NW  09:20 AM 70 63 81% S34 60 mph 58° @ 1255 AM 80 62 96 62 30.11" 0 2.83 362
Seagraves 1SW  09:20 AM 67 62 87% W78 27 mph 78° @ 0335 AM 70 63 96 75 30.15" 0 0 250
Seymour 3NW  09:20 AM 78 61 55% N811 33 mph 314° @ 1210 AM 78 70 77 55 30.05" 0 0 370
Silverton 7ESE  09:20 AM 72 59 66% W1721 23 mph 235° @ 0845 AM 72 58 97 66 30.15" 0 0 463
Slaton 2NE  09:20 AM 69 62 79% NW913 22 mph 65° @ 0115 AM 70 63 93 72 30.13" 0 0 313
Snyder 3E  09:20 AM 68 65 92% S57 41 mph 341° @ 0110 AM 79 63 100 64 30.12" 0 0.86 491
Spur 1W  09:20 AM 74 62 67% NW811 38 mph 45° @ 1240 AM 74 65 89 61 30.09" 0 0.40 429
St. Lawrence 5SW  09:20 AM 67 62 89% S1012 38 mph 8° @ 0445 AM 79 63 95 61 30.10" 0 1.17 193
Sterling City 4WSW  09:22 AM 70 62 76% S1115 41 mph 108° @ 0130 AM 79 65 96 61 30.08" 0 0.07 297
Sundown 8WSW  09:20 AM 66 62 89% SW48 17 mph 101° @ 0350 AM 66 61 96 84 30.17" 0 0 252
Sweetwater 11SW   09:21 AM 71 64 80% S911 38 mph 353° @ 0223 AM 76 64 98 62 30.14" 0 1.35 277
Tahoka 3NNE  09:20 AM 69 61 76% W912 27 mph 66° @ 0213 AM 71 64 89 67 30.13" 0 0 306
Tarzan 2WNW  09:20 AM 69 63 82% SW68 55 mph 89° @ 0347 AM 83 62 97 51 30.10" 0 0.61 243
Tatum NM 2SW  09:20 AM 68 57 68% S1115 28 mph 132° @ 0630 AM 68 60 90 68 30.20" 0 0 321
Tulia 2ENE  09:20 AM 68 62 82% SW1418 21 mph 222° @ 0840 AM 68 60 100 82 30.18" 0 0 453
Turkey 2WSW  09:20 AM 76 61 61% W1622 22 mph 248° @ 0845 AM 76 64 96 61 30.10" 0 0 471
Umbarger 3NNE  09:20 AM 72 57 60% SW1417 22 mph 220° @ 0914 AM 72 56 94 60 30.20" 0 0 502
Wall 1E  09:20 AM 71 64 81% W46 27 mph 129° @ 1240 AM 74 69 89 74 30.12" 0 0.30 164
Weinert 2NNE  09:22 AM 77 64 64% SW23 49 mph 344° @ 1209 AM 77 67 94 61 30.08" 0 0.48 416
White River Lake 6NW  09:20 AM 74 61 65% NW1114 31 mph 51° @ 1245 AM 76 65 86 56 30.11" 0 0 402
Wolfforth 6SSW  09:20 AM 67 63 88% W912 22 mph 61° @ 0210 AM 72 63 95 73 30.15" 0 0 338

West Texas Mesonet Home   Site Map/Menu  NWS Lubbock Soil Data  Daily Summary Page  24hr Precip  72hr Precip  Google Plot